createdAt,value
2019-02-19T00:01:33.707Z,104.17
2019-02-19T00:04:16.387Z,104.10
2019-02-19T00:06:57.379Z,101.50
2019-02-19T00:09:38.690Z,99.37
2019-02-19T00:12:21.504Z,98.53
2019-02-19T00:15:08.201Z,96.37
2019-02-19T00:17:51.099Z,91.90
2019-02-19T00:20:36.403Z,97.57
2019-02-19T00:23:19.558Z,92.37
2019-02-19T00:26:02.486Z,90.33
2019-02-19T00:28:45.678Z,92.50
2019-02-19T00:31:26.951Z,94.63
2019-02-19T00:34:08.749Z,92.57
2019-02-19T00:36:52.196Z,91.90
2019-02-19T00:39:33.081Z,96.13
2019-02-19T00:42:15.282Z,93.70
2019-02-19T00:44:56.196Z,87.73
2019-02-19T00:47:41.351Z,88.23
2019-02-19T00:50:26.222Z,88.83
2019-02-19T00:53:07.278Z,91.17
2019-02-19T00:56:01.543Z,86.80
2019-02-19T00:58:43.386Z,91.30
2019-02-19T01:01:24.595Z,89.13
2019-02-19T01:04:11.143Z,86.07
2019-02-19T01:07:38.409Z,85.30
2019-02-19T01:09:52.947Z,87.40
2019-02-19T01:12:40.653Z,88.43
2019-02-19T01:15:25.478Z,87.13
2019-02-19T01:18:03.763Z,89.03
2019-02-19T01:20:46.868Z,86.03
2019-02-19T01:23:28.119Z,83.17
2019-02-19T01:26:09.716Z,84.67
2019-02-19T01:28:50.794Z,83.77
2019-02-19T01:31:33.075Z,89.57
2019-02-19T01:34:14.693Z,87.43
2019-02-19T01:36:56.148Z,87.80
2019-02-19T01:39:59.887Z,86.67
2019-02-19T01:42:48.365Z,84.40
2019-02-19T01:45:34.056Z,82.43
2019-02-19T01:51:18.389Z,85.70
2019-02-19T01:53:59.616Z,88.40
2019-02-19T01:56:43.542Z,82.17
2019-02-19T01:59:24.233Z,81.60
2019-02-19T02:02:06.874Z,80.13
2019-02-19T02:04:48.978Z,85.03
2019-02-19T02:07:29.924Z,83.03
2019-02-19T02:10:31.783Z,84.93
2019-02-19T02:13:13.053Z,81.93
2019-02-19T02:15:55.771Z,85.17
2019-02-19T02:18:42.325Z,84.07
2019-02-19T02:21:23.995Z,83.03
2019-02-19T02:24:07.164Z,84.20
2019-02-19T02:26:53.101Z,77.67
2019-02-19T02:29:39.059Z,76.77
2019-02-19T02:32:20.468Z,75.10
2019-02-19T02:35:04.232Z,78.20
2019-02-19T02:37:45.588Z,82.20
2019-02-19T02:40:30.436Z,78.40
2019-02-19T02:43:14.462Z,82.23
2019-02-19T02:45:57.142Z,79.07
2019-02-19T02:48:41.091Z,78.83
2019-02-19T02:51:21.786Z,79.80
2019-02-19T02:54:07.673Z,77.20
2019-02-19T02:56:50.636Z,78.73
2019-02-19T02:59:31.545Z,79.43
2019-02-19T03:02:16.588Z,80.53
2019-02-19T03:04:58.364Z,79.80
2019-02-19T03:10:32.798Z,81.30
2019-02-19T03:16:25.568Z,83.23
2019-02-19T03:19:07.103Z,85.30
2019-02-19T03:21:50.638Z,82.70
2019-02-19T03:24:34.399Z,83.70
2019-02-19T03:27:21.286Z,82.60
2019-02-19T03:30:02.147Z,80.03
2019-02-19T03:32:50.257Z,83.23
2019-02-19T03:35:39.402Z,84.17
2019-02-19T03:38:20.287Z,82.33
2019-02-19T03:44:00.177Z,81.30
2019-02-19T03:46:44.455Z,82.13
2019-02-19T03:49:25.952Z,79.70
2019-02-19T03:52:08.528Z,82.20
2019-02-19T03:54:49.559Z,79.17
2019-02-19T03:57:30.557Z,79.53
2019-02-19T04:00:12.346Z,76.77
2019-02-19T04:02:56.439Z,75.53
2019-02-19T04:05:40.734Z,81.17
2019-02-19T04:08:22.470Z,78.33
2019-02-19T04:11:03.900Z,80.13
2019-02-19T04:13:45.701Z,79.67
2019-02-19T04:16:29.755Z,77.63
2019-02-19T04:19:10.806Z,77.47
2019-02-19T04:21:54.545Z,77.67
2019-02-19T04:24:35.395Z,79.17
2019-02-19T04:27:17.445Z,80.40
2019-02-19T04:29:59.966Z,73.43
2019-02-19T04:32:41.074Z,77.30
2019-02-19T04:35:23.065Z,76.43
2019-02-19T04:38:04.670Z,73.53
2019-02-19T04:40:49.517Z,77.47
2019-02-19T04:43:31.357Z,75.23
2019-02-19T04:46:13.138Z,74.53
2019-02-19T04:48:54.706Z,70.67
2019-02-19T04:51:35.812Z,73.43
2019-02-19T04:54:19.827Z,76.53
2019-02-19T04:57:06.333Z,77.33
2019-02-19T04:59:49.927Z,77.17
2019-02-19T05:02:31.352Z,80.77
2019-02-19T05:05:00.870Z,77.90
2019-02-19T05:07:49.699Z,77.00
2019-02-19T05:10:50.833Z,74.93
2019-02-19T05:13:32.985Z,72.67
2019-02-19T05:16:17.341Z,71.60
2019-02-19T05:19:10.878Z,73.37
2019-02-19T05:21:52.991Z,69.67
2019-02-19T05:28:07.290Z,71.37
2019-02-19T05:30:49.622Z,68.07
2019-02-19T05:33:32.096Z,69.97
2019-02-19T05:36:13.726Z,65.27
2019-02-19T05:38:59.006Z,70.40
2019-02-19T05:41:43.711Z,66.63
2019-02-19T05:44:28.102Z,69.63
2019-02-19T05:47:15.153Z,66.37
2019-02-19T05:49:56.973Z,67.23
2019-02-19T05:52:38.445Z,65.63
2019-02-19T05:55:20.227Z,66.57
2019-02-19T05:58:01.372Z,65.77
2019-02-19T06:03:45.853Z,62.93
2019-02-19T06:06:29.030Z,64.47
2019-02-19T06:09:19.686Z,64.10
2019-02-19T06:15:04.919Z,64.43
2019-02-19T06:18:06.698Z,63.87
2019-02-19T06:20:48.645Z,62.47
2019-02-19T06:23:30.631Z,62.50
2019-02-19T06:29:11.626Z,61.77
2019-02-19T06:35:01.795Z,57.37
2019-02-19T06:37:44.807Z,59.50
2019-02-19T06:43:32.757Z,59.67
2019-02-19T06:46:13.439Z,61.23
2019-02-19T06:49:01.388Z,60.53
2019-02-19T06:51:42.762Z,62.93
2019-02-19T06:54:35.482Z,58.53
2019-02-19T06:57:16.451Z,62.63
2019-02-19T06:59:57.718Z,63.07
2019-02-19T07:02:59.129Z,62.23
2019-02-19T07:05:43.534Z,62.37
2019-02-19T07:08:28.701Z,70.87
2019-02-19T07:11:10.208Z,64.23
2019-02-19T07:13:50.897Z,63.03
2019-02-19T07:16:32.759Z,66.20
2019-02-19T07:19:14.105Z,67.60
2019-02-19T07:21:55.350Z,69.30
2019-02-19T07:24:36.808Z,68.07
2019-02-19T07:27:18.168Z,69.30
2019-02-19T07:29:59.425Z,66.80
2019-02-19T07:32:40.975Z,65.27
2019-02-19T07:35:21.904Z,64.90
2019-02-19T07:38:01.459Z,69.10
2019-02-19T07:40:49.927Z,67.33
2019-02-19T07:43:31.418Z,72.60
2019-02-19T07:46:12.551Z,71.30
2019-02-19T07:48:53.983Z,73.93
2019-02-19T07:51:34.584Z,71.77
2019-02-19T07:54:15.682Z,73.37
2019-02-19T07:56:56.463Z,75.00
2019-02-19T07:59:37.506Z,76.87
2019-02-19T08:02:17.277Z,77.53
2019-02-19T08:04:46.831Z,79.27
2019-02-19T08:07:35.254Z,72.87
2019-02-19T08:10:16.096Z,75.40
2019-02-19T08:12:56.869Z,73.27
2019-02-19T08:15:38.383Z,75.63
2019-02-19T08:18:19.291Z,73.23
2019-02-19T08:20:59.829Z,75.13
2019-02-19T08:23:41.099Z,76.50
2019-02-19T08:26:22.459Z,78.07
2019-02-19T08:29:13.210Z,81.67
2019-02-19T08:31:47.363Z,77.23
2019-02-19T08:34:27.892Z,75.67
2019-02-19T08:37:09.175Z,77.70
2019-02-19T08:39:50.605Z,75.43
2019-02-19T08:42:31.462Z,77.17
2019-02-19T08:45:12.798Z,75.70
2019-02-19T08:47:54.219Z,75.00
2019-02-19T08:50:34.974Z,77.97
2019-02-19T08:53:15.992Z,75.60
2019-02-19T08:55:57.409Z,77.07
2019-02-19T08:58:38.858Z,74.83
2019-02-19T09:01:20.153Z,77.90
2019-02-19T09:04:00.798Z,77.60
2019-02-19T09:06:40.474Z,74.93
2019-02-19T09:09:28.858Z,75.90
2019-02-19T09:12:11.575Z,73.30
2019-02-19T09:15:00.371Z,71.13
2019-02-19T09:17:51.293Z,73.07
2019-02-19T09:20:25.382Z,78.13
2019-02-19T09:23:06.581Z,75.63
2019-02-19T09:25:48.039Z,77.03
2019-02-19T09:28:29.418Z,74.20
2019-02-19T09:31:11.268Z,76.83
2019-02-19T09:33:53.759Z,79.13
2019-02-19T09:36:36.228Z,77.10
2019-02-19T09:39:17.560Z,80.67
2019-02-19T09:41:58.899Z,81.43
2019-02-19T09:44:40.102Z,82.17
2019-02-19T09:47:20.806Z,80.67
2019-02-19T09:50:01.459Z,79.97
2019-02-19T09:52:42.667Z,80.17
2019-02-19T09:55:23.530Z,78.97
2019-02-19T09:58:04.868Z,77.67
2019-02-19T10:00:46.094Z,84.57
2019-02-19T10:03:26.883Z,81.23
2019-02-19T10:06:08.249Z,82.27
2019-02-19T10:08:48.901Z,81.03
2019-02-19T10:11:30.075Z,80.40
2019-02-19T10:14:11.554Z,77.70
2019-02-19T10:16:53.041Z,80.17
2019-02-19T10:19:34.052Z,81.33
2019-02-19T10:22:14.901Z,79.40
2019-02-19T10:24:56.104Z,80.13
2019-02-19T10:27:37.271Z,78.23
2019-02-19T10:30:18.066Z,77.17
2019-02-19T10:32:59.344Z,76.83
2019-02-19T10:38:38.481Z,73.17
2019-02-19T10:41:19.342Z,77.70
2019-02-19T10:44:00.855Z,76.00
2019-02-19T10:46:41.487Z,76.50
2019-02-19T10:49:22.092Z,72.33
2019-02-19T10:52:01.609Z,74.17
2019-02-19T10:54:51.233Z,73.80
2019-02-19T10:57:32.835Z,71.23
2019-02-19T11:00:14.707Z,73.73
2019-02-19T11:02:56.161Z,76.13
2019-02-19T11:05:37.593Z,77.03
2019-02-19T11:08:18.590Z,75.63
2019-02-19T11:10:58.086Z,75.30
2019-02-19T11:13:46.534Z,75.93
2019-02-19T11:16:27.870Z,74.33
2019-02-19T11:19:09.002Z,75.93
2019-02-19T11:21:49.792Z,76.20
2019-02-19T11:24:31.324Z,74.07
2019-02-19T11:27:12.670Z,74.53
2019-02-19T11:29:54.353Z,72.43
2019-02-19T11:32:35.068Z,71.03
2019-02-19T11:35:16.689Z,77.90
2019-02-19T11:37:57.764Z,73.60
2019-02-19T11:40:39.850Z,73.50
2019-02-19T11:43:20.506Z,74.53
2019-02-19T11:46:01.440Z,72.30
2019-02-19T11:48:43.055Z,74.37
2019-02-19T11:51:23.673Z,69.50
2019-02-19T11:54:06.180Z,71.73
2019-02-19T11:56:47.707Z,73.63
2019-02-19T11:59:28.973Z,70.93
2019-02-19T12:02:13.837Z,72.07
2019-02-19T12:04:55.379Z,71.73
2019-02-19T12:07:36.795Z,70.10
2019-02-19T12:10:18.147Z,71.47
2019-02-19T12:13:01.730Z,69.20
2019-02-19T12:15:42.627Z,73.27
2019-02-19T12:18:23.887Z,72.60
2019-02-19T12:21:04.548Z,72.63
2019-02-19T12:23:45.231Z,73.60
2019-02-19T12:26:26.508Z,72.83
2019-02-19T12:29:07.114Z,74.90
2019-02-19T12:31:48.350Z,74.87
2019-02-19T12:34:29.839Z,72.07
2019-02-19T12:37:11.313Z,71.53
2019-02-19T12:39:52.368Z,70.33
2019-02-19T12:42:35.813Z,69.53
2019-02-19T12:45:18.115Z,70.47
2019-02-19T12:47:59.446Z,68.03
2019-02-19T12:50:40.105Z,68.90
2019-02-19T12:53:21.437Z,69.50
2019-02-19T12:56:00.964Z,68.07
2019-02-19T12:58:42.452Z,70.80
2019-02-19T13:01:23.827Z,70.30
2019-02-19T13:04:04.660Z,68.30
2019-02-19T13:06:45.261Z,67.77
2019-02-19T13:09:26.581Z,67.40
2019-02-19T13:12:08.098Z,66.80
2019-02-19T13:14:49.355Z,69.40
2019-02-19T13:17:29.958Z,67.60
2019-02-19T13:20:11.168Z,69.80
2019-02-19T13:22:52.161Z,67.73
2019-02-19T13:25:35.527Z,69.03
2019-02-19T13:28:16.149Z,66.37
2019-02-19T13:30:58.453Z,66.97
2019-02-19T13:33:38.301Z,66.90
2019-02-19T13:36:47.228Z,66.77
2019-02-19T13:42:31.042Z,67.67
2019-02-19T13:45:11.902Z,65.93
2019-02-19T13:47:53.450Z,69.67
2019-02-19T13:50:34.850Z,66.50
2019-02-19T13:53:34.412Z,68.00
2019-02-19T13:56:15.155Z,66.67
2019-02-19T13:58:55.802Z,67.17
2019-02-19T14:01:37.335Z,67.93
2019-02-19T14:04:16.915Z,66.23
2019-02-19T14:06:58.322Z,66.07
2019-02-19T14:09:42.254Z,67.23
2019-02-19T14:12:23.615Z,65.47
2019-02-19T14:18:19.147Z,66.87
2019-02-19T14:21:14.806Z,67.00
2019-02-19T14:24:14.657Z,66.90
2019-02-19T14:27:14.738Z,66.20
2019-02-19T14:30:15.282Z,67.00
2019-02-19T14:33:18.094Z,64.13
2019-02-19T14:36:17.724Z,65.93
2019-02-19T14:39:17.544Z,66.00
2019-02-19T14:42:13.349Z,64.77
2019-02-19T14:45:01.662Z,65.17
2019-02-19T14:48:02.742Z,67.00
2019-02-19T14:51:05.591Z,65.80
2019-02-19T14:54:05.155Z,65.30
2019-02-19T14:57:05.483Z,63.87
2019-02-19T15:00:15.200Z,64.70
2019-02-19T15:03:00.367Z,64.97
2019-02-19T15:06:00.792Z,64.17
2019-02-19T15:09:00.978Z,64.77
2019-02-19T15:11:49.862Z,62.47
2019-02-19T15:14:49.794Z,62.70
2019-02-19T15:17:37.085Z,63.83
2019-02-19T15:20:34.785Z,63.50
2019-02-19T15:23:34.561Z,62.77
2019-02-19T15:26:34.155Z,63.47
2019-02-19T15:29:34.529Z,65.33
2019-02-19T15:32:34.434Z,74.70
2019-02-19T15:35:40.370Z,72.93
2019-02-19T15:38:40.569Z,69.83
2019-02-19T15:41:40.277Z,68.30
2019-02-19T15:44:35.644Z,67.27
2019-02-19T15:47:36.175Z,68.07
2019-02-19T15:50:36.489Z,65.03
2019-02-19T15:53:39.374Z,68.43
2019-02-19T15:56:39.588Z,70.40
2019-02-19T15:59:45.383Z,68.73
2019-02-19T16:02:45.681Z,72.00
2019-02-19T16:05:53.181Z,69.10
2019-02-19T16:09:00.559Z,68.67
2019-02-19T16:11:55.300Z,65.47
2019-02-19T16:14:50.144Z,69.10
2019-02-19T16:17:56.114Z,77.80
2019-02-19T16:20:53.693Z,77.37
2019-02-19T16:23:57.231Z,79.27
2019-02-19T16:26:57.644Z,73.67
2019-02-19T16:29:55.539Z,71.67
2019-02-19T16:32:56.070Z,67.93
2019-02-19T16:35:43.371Z,70.13
2019-02-19T16:38:46.515Z,70.87
2019-02-19T16:41:46.703Z,72.17
2019-02-19T16:44:46.564Z,71.73
2019-02-19T16:47:46.671Z,71.63
2019-02-19T16:50:47.078Z,70.63
2019-02-19T16:53:47.422Z,70.17
2019-02-19T16:56:47.856Z,70.83
2019-02-19T16:59:37.710Z,73.70
2019-02-19T17:02:45.125Z,72.00
2019-02-19T17:05:35.561Z,71.20
2019-02-19T17:08:38.205Z,70.23
2019-02-19T17:11:38.566Z,72.37
2019-02-19T17:14:38.161Z,72.53
2019-02-19T17:17:35.652Z,72.90
2019-02-19T17:20:36.102Z,70.43
2019-02-19T17:23:36.243Z,69.90
2019-02-19T17:26:38.933Z,73.43
2019-02-19T17:29:39.346Z,73.30
2019-02-19T17:32:41.462Z,69.97
2019-02-19T17:35:31.647Z,72.03
2019-02-19T17:38:34.573Z,72.50
2019-02-19T17:41:32.938Z,67.63
2019-02-19T17:44:32.643Z,68.13
2019-02-19T17:47:30.668Z,73.07
2019-02-19T17:50:21.398Z,85.42
2019-02-19T17:53:21.793Z,77.17
2019-02-19T17:56:25.067Z,72.93
2019-02-19T17:59:24.821Z,70.40
2019-02-19T18:02:27.715Z,75.53
2019-02-19T18:05:30.671Z,73.40
2019-02-19T18:08:20.006Z,75.17
2019-02-19T18:11:22.837Z,73.50
2019-02-19T18:14:19.407Z,73.70
2019-02-19T18:17:06.636Z,70.00
2019-02-19T18:19:47.455Z,70.80
2019-02-19T18:22:28.884Z,71.67
2019-02-19T18:25:10.703Z,73.57
2019-02-19T18:27:51.498Z,73.73
2019-02-19T18:30:32.478Z,76.03
2019-02-19T18:33:13.115Z,77.10
2019-02-19T18:35:54.670Z,71.90
2019-02-19T18:38:35.312Z,76.63
2019-02-19T18:41:15.948Z,74.17
2019-02-19T18:43:57.586Z,75.83
2019-02-19T18:49:46.652Z,72.17
2019-02-19T18:52:31.032Z,76.37
2019-02-19T18:55:12.463Z,77.67
2019-02-19T18:57:53.369Z,76.00
2019-02-19T19:00:34.459Z,74.07
2019-02-19T19:03:21.772Z,75.87
2019-02-19T19:06:03.274Z,76.37
2019-02-19T19:08:44.190Z,74.63
2019-02-19T19:11:26.129Z,74.07
2019-02-19T19:14:06.822Z,75.37
2019-02-19T19:16:47.854Z,76.90
2019-02-19T19:19:30.551Z,76.17
2019-02-19T19:22:13.416Z,75.17
2019-02-19T19:24:55.180Z,73.13
2019-02-19T19:27:36.182Z,76.73
2019-02-19T19:30:20.226Z,79.20
2019-02-19T19:33:05.047Z,76.07
2019-02-19T19:35:53.622Z,78.07
2019-02-19T19:38:43.636Z,78.30
2019-02-19T19:41:25.192Z,77.43
2019-02-19T19:47:26.763Z,78.17
2019-02-19T19:50:16.033Z,79.73
2019-02-19T19:53:00.914Z,78.50
2019-02-19T19:55:42.071Z,75.57
2019-02-19T19:58:23.462Z,76.93
2019-02-19T20:01:06.507Z,77.10
2019-02-19T20:06:51.191Z,76.40
2019-02-19T20:09:41.019Z,79.20
2019-02-19T20:12:22.678Z,79.93
2019-02-19T20:15:03.609Z,76.20
2019-02-19T20:17:45.196Z,78.30
2019-02-19T20:20:32.273Z,73.17
2019-02-19T20:23:13.367Z,75.00
2019-02-19T20:25:54.700Z,73.63
2019-02-19T20:31:40.050Z,71.00
2019-02-19T20:34:22.084Z,72.07
2019-02-19T20:37:10.997Z,72.73
2019-02-19T20:40:18.995Z,71.80
2019-02-19T20:43:00.757Z,69.03
2019-02-19T20:45:43.899Z,72.40
2019-02-19T20:48:26.219Z,71.27
2019-02-19T20:51:07.857Z,72.27
2019-02-19T20:53:50.757Z,76.87
2019-02-19T20:56:35.503Z,71.43
2019-02-19T20:59:17.082Z,72.90
2019-02-19T21:01:58.326Z,73.90
2019-02-19T21:04:41.986Z,72.00
2019-02-19T21:07:23.488Z,73.63
2019-02-19T21:10:04.658Z,74.73
2019-02-19T21:12:45.552Z,75.13
2019-02-19T21:15:26.415Z,74.23
2019-02-19T21:18:08.958Z,73.73
2019-02-19T21:20:51.017Z,73.47
2019-02-19T21:23:33.410Z,73.80
2019-02-19T21:26:16.127Z,73.33
2019-02-19T21:28:59.048Z,73.40
2019-02-19T21:31:40.433Z,73.93
2019-02-19T21:34:21.779Z,74.20
2019-02-19T21:37:03.263Z,70.37
2019-02-19T21:39:44.601Z,73.70
2019-02-19T21:42:29.327Z,75.57
2019-02-19T21:48:17.895Z,73.67
2019-02-19T21:50:59.575Z,75.90
2019-02-19T21:53:40.815Z,70.87
2019-02-19T21:59:30.349Z,72.80
2019-02-19T22:02:16.591Z,73.73
2019-02-19T22:04:59.447Z,75.87
2019-02-19T22:07:41.963Z,74.43
2019-02-19T22:10:23.720Z,71.20
2019-02-19T22:13:07.802Z,73.00
2019-02-19T22:15:49.456Z,74.73
2019-02-19T22:18:30.592Z,70.57
2019-02-19T22:21:17.418Z,71.33
2019-02-19T22:23:58.314Z,72.70
2019-02-19T22:26:39.001Z,74.87
2019-02-19T22:29:23.473Z,73.43
2019-02-19T22:32:05.035Z,74.73
2019-02-19T22:34:46.330Z,75.53
2019-02-19T22:37:28.941Z,71.60
2019-02-19T22:40:09.888Z,69.53
2019-02-19T22:42:50.964Z,69.77
2019-02-19T22:45:36.560Z,73.87
2019-02-19T22:48:19.715Z,71.13
2019-02-19T22:51:01.237Z,70.43
2019-02-19T22:54:02.487Z,71.23
2019-02-19T22:56:45.232Z,74.23
2019-02-19T22:59:34.097Z,76.37
2019-02-19T23:02:20.865Z,71.87
2019-02-19T23:05:02.648Z,73.40
2019-02-19T23:07:43.323Z,73.83
2019-02-19T23:11:05.841Z,72.00
2019-02-19T23:13:48.229Z,71.23
2019-02-19T23:16:47.991Z,72.83
2019-02-19T23:19:19.310Z,70.63
2019-02-19T23:22:00.692Z,70.20
2019-02-19T23:24:42.195Z,71.20
2019-02-19T23:27:23.649Z,70.33
2019-02-19T23:30:05.044Z,73.47
2019-02-19T23:32:47.295Z,70.20
2019-02-19T23:35:55.028Z,68.73
2019-02-19T23:38:37.690Z,72.50
2019-02-19T23:41:20.268Z,72.07
2019-02-19T23:44:03.081Z,70.70
2019-02-19T23:46:44.440Z,71.93
2019-02-19T23:49:25.514Z,72.60
2019-02-19T23:52:07.198Z,70.93
2019-02-19T23:54:48.347Z,73.37
2019-02-19T23:57:32.227Z,72.03
